sensor_id;sensor_type;location;lat;lon;timestamp;P1;durP1;ratioP1;P2;durP2;ratioP2
56239;SDS011;42154;51.992;5.896;2023-04-25T00:02:20;12.55;;;3.70;;
56239;SDS011;42154;51.992;5.896;2023-04-25T00:04:47;12.60;;;3.67;;
56239;SDS011;42154;51.992;5.896;2023-04-25T00:07:14;11.20;;;3.40;;
56239;SDS011;42154;51.992;5.896;2023-04-25T00:09:41;16.30;;;4.28;;
56239;SDS011;42154;51.992;5.896;2023-04-25T00:12:07;15.35;;;4.32;;
56239;SDS011;42154;51.992;5.896;2023-04-25T00:14:33;11.63;;;3.65;;
56239;SDS011;42154;51.992;5.896;2023-04-25T00:16:59;17.30;;;3.78;;
56239;SDS011;42154;51.992;5.896;2023-04-25T00:19:25;11.68;;;4.35;;
56239;SDS011;42154;51.992;5.896;2023-04-25T00:21:54;11.30;;;3.95;;
56239;SDS011;42154;51.992;5.896;2023-04-25T00:24:20;12.38;;;3.92;;
56239;SDS011;42154;51.992;5.896;2023-04-25T00:26:46;15.48;;;4.25;;
56239;SDS011;42154;51.992;5.896;2023-04-25T00:29:11;12.70;;;3.70;;
56239;SDS011;42154;51.992;5.896;2023-04-25T00:31:37;15.20;;;4.32;;
56239;SDS011;42154;51.992;5.896;2023-04-25T00:34:03;12.82;;;4.10;;
56239;SDS011;42154;51.992;5.896;2023-04-25T00:36:29;15.68;;;4.32;;
56239;SDS011;42154;51.992;5.896;2023-04-25T00:38:55;8.50;;;3.35;;
56239;SDS011;42154;51.992;5.896;2023-04-25T00:41:21;11.52;;;3.92;;
56239;SDS011;42154;51.992;5.896;2023-04-25T00:43:47;11.70;;;4.15;;
56239;SDS011;42154;51.992;5.896;2023-04-25T00:46:14;11.48;;;3.75;;
56239;SDS011;42154;51.992;5.896;2023-04-25T00:48:39;8.10;;;3.38;;
56239;SDS011;42154;51.992;5.896;2023-04-25T00:51:05;10.38;;;3.65;;
56239;SDS011;42154;51.992;5.896;2023-04-25T00:53:31;11.57;;;3.67;;
56239;SDS011;42154;51.992;5.896;2023-04-25T00:55:57;8.95;;;2.95;;
56239;SDS011;42154;51.992;5.896;2023-04-25T00:58:24;16.92;;;3.90;;
56239;SDS011;42154;51.992;5.896;2023-04-25T01:00:50;11.77;;;3.72;;
56239;SDS011;42154;51.992;5.896;2023-04-25T01:03:17;12.98;;;3.83;;
56239;SDS011;42154;51.992;5.896;2023-04-25T01:05:45;16.70;;;3.97;;
56239;SDS011;42154;51.992;5.896;2023-04-25T01:08:13;10.57;;;4.10;;
56239;SDS011;42154;51.992;5.896;2023-04-25T01:10:39;10.80;;;3.92;;
56239;SDS011;42154;51.992;5.896;2023-04-25T01:13:05;13.15;;;4.63;;
56239;SDS011;42154;51.992;5.896;2023-04-25T01:15:31;13.25;;;4.05;;
56239;SDS011;42154;51.992;5.896;2023-04-25T01:17:57;10.52;;;3.67;;
56239;SDS011;42154;51.992;5.896;2023-04-25T01:20:26;19.95;;;5.35;;
56239;SDS011;42154;51.992;5.896;2023-04-25T01:22:53;11.82;;;5.03;;
56239;SDS011;42154;51.992;5.896;2023-04-25T01:25:20;12.30;;;5.00;;
56239;SDS011;42154;51.992;5.896;2023-04-25T01:27:47;13.82;;;4.68;;
56239;SDS011;42154;51.992;5.896;2023-04-25T01:30:14;13.00;;;4.53;;
56239;SDS011;42154;51.992;5.896;2023-04-25T01:32:41;17.13;;;4.80;;
56239;SDS011;42154;51.992;5.896;2023-04-25T01:35:09;13.63;;;4.65;;
56239;SDS011;42154;51.992;5.896;2023-04-25T01:37:36;12.95;;;4.28;;
56239;SDS011;42154;51.992;5.896;2023-04-25T01:40:07;17.77;;;5.85;;
56239;SDS011;42154;51.992;5.896;2023-04-25T01:42:35;17.90;;;5.80;;
56239;SDS011;42154;51.992;5.896;2023-04-25T01:45:03;13.20;;;5.25;;
56239;SDS011;42154;51.992;5.896;2023-04-25T01:47:29;12.57;;;4.15;;
56239;SDS011;42154;51.992;5.896;2023-04-25T01:49:55;11.48;;;5.07;;
56239;SDS011;42154;51.992;5.896;2023-04-25T01:52:21;14.02;;;4.68;;
56239;SDS011;42154;51.992;5.896;2023-04-25T01:54:47;18.60;;;4.97;;
56239;SDS011;42154;51.992;5.896;2023-04-25T01:57:14;13.32;;;4.80;;
56239;SDS011;42154;51.992;5.896;2023-04-25T01:59:42;13.80;;;6.20;;
56239;SDS011;42154;51.992;5.896;2023-04-25T02:02:19;20.52;;;5.10;;
56239;SDS011;42154;51.992;5.896;2023-04-25T02:04:45;14.10;;;5.35;;
56239;SDS011;42154;51.992;5.896;2023-04-25T02:07:12;14.80;;;5.20;;
56239;SDS011;42154;51.992;5.896;2023-04-25T02:09:46;16.42;;;5.45;;
56239;SDS011;42154;51.992;5.896;2023-04-25T02:12:12;18.83;;;4.97;;
56239;SDS011;42154;51.992;5.896;2023-04-25T02:14:57;15.95;;;4.65;;
56239;SDS011;42154;51.992;5.896;2023-04-25T02:17:34;16.35;;;4.90;;
56239;SDS011;42154;51.992;5.896;2023-04-25T02:20:00;15.77;;;5.55;;
56239;SDS011;42154;51.992;5.896;2023-04-25T02:22:26;14.05;;;4.35;;
56239;SDS011;42154;51.992;5.896;2023-04-25T02:24:53;10.38;;;4.38;;
56239;SDS011;42154;51.992;5.896;2023-04-25T02:27:20;17.75;;;4.85;;
56239;SDS011;42154;51.992;5.896;2023-04-25T02:29:45;16.85;;;4.80;;
56239;SDS011;42154;51.992;5.896;2023-04-25T02:32:11;16.05;;;4.72;;
56239;SDS011;42154;51.992;5.896;2023-04-25T02:34:37;27.42;;;5.93;;
56239;SDS011;42154;51.992;5.896;2023-04-25T02:37:02;17.48;;;5.78;;
56239;SDS011;42154;51.992;5.896;2023-04-25T02:39:28;16.58;;;4.90;;
56239;SDS011;42154;51.992;5.896;2023-04-25T02:41:54;14.25;;;4.10;;
56239;SDS011;42154;51.992;5.896;2023-04-25T02:44:20;16.77;;;4.50;;
56239;SDS011;42154;51.992;5.896;2023-04-25T02:46:46;13.63;;;4.40;;
56239;SDS011;42154;51.992;5.896;2023-04-25T02:49:12;13.73;;;4.55;;
56239;SDS011;42154;51.992;5.896;2023-04-25T02:51:37;14.57;;;5.07;;
56239;SDS011;42154;51.992;5.896;2023-04-25T02:54:04;14.57;;;4.30;;
56239;SDS011;42154;51.992;5.896;2023-04-25T02:56:34;17.23;;;5.57;;
56239;SDS011;42154;51.992;5.896;2023-04-25T02:58:59;15.20;;;4.43;;
56239;SDS011;42154;51.992;5.896;2023-04-25T03:01:26;13.57;;;4.30;;
56239;SDS011;42154;51.992;5.896;2023-04-25T03:03:52;15.35;;;4.63;;
56239;SDS011;42154;51.992;5.896;2023-04-25T03:06:17;13.82;;;4.40;;
56239;SDS011;42154;51.992;5.896;2023-04-25T03:08:43;13.52;;;4.80;;
56239;SDS011;42154;51.992;5.896;2023-04-25T03:11:09;17.90;;;3.85;;
56239;SDS011;42154;51.992;5.896;2023-04-25T03:13:35;17.40;;;5.22;;
56239;SDS011;42154;51.992;5.896;2023-04-25T03:16:01;16.27;;;4.13;;
56239;SDS011;42154;51.992;5.896;2023-04-25T03:18:28;12.55;;;3.97;;
56239;SDS011;42154;51.992;5.896;2023-04-25T03:20:54;11.70;;;4.13;;
56239;SDS011;42154;51.992;5.896;2023-04-25T03:23:20;14.77;;;4.07;;
56239;SDS011;42154;51.992;5.896;2023-04-25T03:25:46;10.95;;;3.80;;
56239;SDS011;42154;51.992;5.896;2023-04-25T03:28:12;11.18;;;4.63;;
56239;SDS011;42154;51.992;5.896;2023-04-25T03:30:38;11.70;;;4.32;;
56239;SDS011;42154;51.992;5.896;2023-04-25T03:33:03;14.20;;;3.63;;
56239;SDS011;42154;51.992;5.896;2023-04-25T03:35:29;17.48;;;4.53;;
56239;SDS011;42154;51.992;5.896;2023-04-25T03:37:55;12.70;;;4.10;;
56239;SDS011;42154;51.992;5.896;2023-04-25T03:40:26;11.60;;;3.80;;
56239;SDS011;42154;51.992;5.896;2023-04-25T03:43:14;12.07;;;3.60;;
56239;SDS011;42154;51.992;5.896;2023-04-25T03:45:46;14.38;;;4.22;;
56239;SDS011;42154;51.992;5.896;2023-04-25T03:48:12;12.38;;;3.70;;
56239;SDS011;42154;51.992;5.896;2023-04-25T03:50:38;14.50;;;4.22;;
56239;SDS011;42154;51.992;5.896;2023-04-25T03:53:04;13.60;;;4.68;;
56239;SDS011;42154;51.992;5.896;2023-04-25T03:55:43;8.90;;;3.78;;
56239;SDS011;42154;51.992;5.896;2023-04-25T03:58:09;11.45;;;3.63;;
56239;SDS011;42154;51.992;5.896;2023-04-25T04:00:36;11.50;;;3.97;;
56239;SDS011;42154;51.992;5.896;2023-04-25T04:03:02;15.75;;;4.93;;
56239;SDS011;42154;51.992;5.896;2023-04-25T04:05:28;21.13;;;5.25;;
56239;SDS011;42154;51.992;5.896;2023-04-25T04:07:55;10.82;;;3.83;;
56239;SDS011;42154;51.992;5.896;2023-04-25T04:10:21;11.07;;;4.60;;
56239;SDS011;42154;51.992;5.896;2023-04-25T04:12:47;16.75;;;5.30;;
56239;SDS011;42154;51.992;5.896;2023-04-25T04:15:13;12.88;;;4.30;;
56239;SDS011;42154;51.992;5.896;2023-04-25T04:17:40;11.48;;;3.80;;
56239;SDS011;42154;51.992;5.896;2023-04-25T04:20:07;18.48;;;4.50;;
56239;SDS011;42154;51.992;5.896;2023-04-25T04:22:34;13.68;;;4.15;;
56239;SDS011;42154;51.992;5.896;2023-04-25T04:27:51;18.33;;;4.53;;
56239;SDS011;42154;51.992;5.896;2023-04-25T04:30:34;12.40;;;4.18;;
56239;SDS011;42154;51.992;5.896;2023-04-25T04:33:05;11.25;;;3.90;;
56239;SDS011;42154;51.992;5.896;2023-04-25T04:35:31;20.08;;;5.38;;
56239;SDS011;42154;51.992;5.896;2023-04-25T04:37:57;11.55;;;4.57;;
56239;SDS011;42154;51.992;5.896;2023-04-25T04:40:26;13.02;;;4.20;;
56239;SDS011;42154;51.992;5.896;2023-04-25T04:43:02;13.07;;;4.97;;
56239;SDS011;42154;51.992;5.896;2023-04-25T04:45:57;13.57;;;5.05;;
56239;SDS011;42154;51.992;5.896;2023-04-25T04:48:52;16.33;;;4.88;;
56239;SDS011;42154;51.992;5.896;2023-04-25T04:51:56;15.98;;;4.30;;
56239;SDS011;42154;51.992;5.896;2023-04-25T04:54:54;14.77;;;4.72;;
56239;SDS011;42154;51.992;5.896;2023-04-25T04:57:42;10.80;;;4.70;;
56239;SDS011;42154;51.992;5.896;2023-04-25T05:00:19;17.35;;;5.55;;
56239;SDS011;42154;51.992;5.896;2023-04-25T05:02:51;13.13;;;4.47;;
56239;SDS011;42154;51.992;5.896;2023-04-25T05:05:40;12.00;;;4.43;;
56239;SDS011;42154;51.992;5.896;2023-04-25T05:08:24;13.38;;;4.50;;
56239;SDS011;42154;51.992;5.896;2023-04-25T05:11:07;14.73;;;5.28;;
56239;SDS011;42154;51.992;5.896;2023-04-25T05:13:51;15.85;;;5.57;;
56239;SDS011;42154;51.992;5.896;2023-04-25T05:16:37;13.80;;;4.53;;
56239;SDS011;42154;51.992;5.896;2023-04-25T05:19:21;14.73;;;4.90;;
56239;SDS011;42154;51.992;5.896;2023-04-25T05:22:05;13.10;;;4.63;;
56239;SDS011;42154;51.992;5.896;2023-04-25T05:24:42;13.82;;;5.00;;
56239;SDS011;42154;51.992;5.896;2023-04-25T05:27:21;14.15;;;5.18;;
56239;SDS011;42154;51.992;5.896;2023-04-25T05:30:06;13.15;;;4.25;;
56239;SDS011;42154;51.992;5.896;2023-04-25T05:32:51;12.25;;;4.63;;
56239;SDS011;42154;51.992;5.896;2023-04-25T05:35:17;12.23;;;4.60;;
56239;SDS011;42154;51.992;5.896;2023-04-25T05:37:46;16.05;;;4.93;;
56239;SDS011;42154;51.992;5.896;2023-04-25T05:40:13;12.52;;;5.00;;
56239;SDS011;42154;51.992;5.896;2023-04-25T05:42:44;16.10;;;5.93;;
56239;SDS011;42154;51.992;5.896;2023-04-25T05:45:29;13.30;;;4.88;;
56239;SDS011;42154;51.992;5.896;2023-04-25T05:48:03;14.43;;;4.82;;
56239;SDS011;42154;51.992;5.896;2023-04-25T05:50:41;10.82;;;4.40;;
56239;SDS011;42154;51.992;5.896;2023-04-25T05:53:25;9.90;;;3.90;;
56239;SDS011;42154;51.992;5.896;2023-04-25T05:55:57;9.85;;;3.97;;
56239;SDS011;42154;51.992;5.896;2023-04-25T05:58:25;13.57;;;3.75;;
56239;SDS011;42154;51.992;5.896;2023-04-25T06:00:52;9.85;;;4.40;;
56239;SDS011;42154;51.992;5.896;2023-04-25T06:03:18;9.70;;;4.07;;
56239;SDS011;42154;51.992;5.896;2023-04-25T06:05:44;12.73;;;4.22;;
56239;SDS011;42154;51.992;5.896;2023-04-25T06:08:10;14.60;;;4.15;;
56239;SDS011;42154;51.992;5.896;2023-04-25T06:10:36;14.75;;;4.47;;
56239;SDS011;42154;51.992;5.896;2023-04-25T06:13:03;14.20;;;4.55;;
56239;SDS011;42154;51.992;5.896;2023-04-25T06:15:31;12.93;;;4.65;;
56239;SDS011;42154;51.992;5.896;2023-04-25T06:18:00;12.63;;;4.18;;
56239;SDS011;42154;51.992;5.896;2023-04-25T06:20:26;12.88;;;4.10;;
56239;SDS011;42154;51.992;5.896;2023-04-25T06:22:54;21.67;;;4.80;;
56239;SDS011;42154;51.992;5.896;2023-04-25T06:25:27;12.43;;;4.55;;
56239;SDS011;42154;51.992;5.896;2023-04-25T06:27:54;10.25;;;4.55;;
56239;SDS011;42154;51.992;5.896;2023-04-25T06:30:20;15.93;;;5.32;;
56239;SDS011;42154;51.992;5.896;2023-04-25T06:32:52;12.05;;;4.30;;
56239;SDS011;42154;51.992;5.896;2023-04-25T06:35:18;10.88;;;4.40;;
56239;SDS011;42154;51.992;5.896;2023-04-25T06:37:45;11.32;;;4.47;;
56239;SDS011;42154;51.992;5.896;2023-04-25T06:40:10;10.35;;;4.18;;
56239;SDS011;42154;51.992;5.896;2023-04-25T06:42:36;10.57;;;3.53;;
56239;SDS011;42154;51.992;5.896;2023-04-25T06:45:22;11.10;;;3.92;;
56239;SDS011;42154;51.992;5.896;2023-04-25T06:47:48;12.68;;;4.15;;
56239;SDS011;42154;51.992;5.896;2023-04-25T06:50:13;10.65;;;4.05;;
56239;SDS011;42154;51.992;5.896;2023-04-25T06:52:39;11.85;;;4.25;;
56239;SDS011;42154;51.992;5.896;2023-04-25T06:55:05;10.50;;;3.80;;
56239;SDS011;42154;51.992;5.896;2023-04-25T06:58:03;8.23;;;3.10;;
56239;SDS011;42154;51.992;5.896;2023-04-25T07:00:55;11.30;;;3.88;;
56239;SDS011;42154;51.992;5.896;2023-04-25T07:03:24;13.02;;;3.97;;
56239;SDS011;42154;51.992;5.896;2023-04-25T07:05:54;12.30;;;4.15;;
56239;SDS011;42154;51.992;5.896;2023-04-25T07:08:20;9.90;;;3.78;;
56239;SDS011;42154;51.992;5.896;2023-04-25T07:10:46;10.88;;;3.80;;
56239;SDS011;42154;51.992;5.896;2023-04-25T07:13:12;8.63;;;3.47;;
56239;SDS011;42154;51.992;5.896;2023-04-25T07:15:38;10.80;;;3.50;;
56239;SDS011;42154;51.992;5.896;2023-04-25T07:18:05;13.32;;;4.47;;
56239;SDS011;42154;51.992;5.896;2023-04-25T07:20:31;12.93;;;4.55;;
56239;SDS011;42154;51.992;5.896;2023-04-25T07:22:58;12.02;;;3.58;;
56239;SDS011;42154;51.992;5.896;2023-04-25T07:25:24;10.32;;;3.63;;
56239;SDS011;42154;51.992;5.896;2023-04-25T07:27:50;12.57;;;3.65;;
56239;SDS011;42154;51.992;5.896;2023-04-25T07:30:18;10.50;;;3.58;;
56239;SDS011;42154;51.992;5.896;2023-04-25T07:32:43;13.27;;;3.33;;
56239;SDS011;42154;51.992;5.896;2023-04-25T07:35:10;8.98;;;3.03;;
56239;SDS011;42154;51.992;5.896;2023-04-25T07:37:36;13.95;;;3.33;;
56239;SDS011;42154;51.992;5.896;2023-04-25T07:40:14;9.25;;;3.00;;
56239;SDS011;42154;51.992;5.896;2023-04-25T07:42:45;10.23;;;3.45;;
56239;SDS011;42154;51.992;5.896;2023-04-25T07:45:15;9.55;;;2.30;;
56239;SDS011;42154;51.992;5.896;2023-04-25T07:47:41;10.73;;;2.78;;
56239;SDS011;42154;51.992;5.896;2023-04-25T07:50:07;11.27;;;2.30;;
56239;SDS011;42154;51.992;5.896;2023-04-25T07:52:34;10.68;;;1.90;;
56239;SDS011;42154;51.992;5.896;2023-04-25T07:55:07;9.00;;;2.75;;
56239;SDS011;42154;51.992;5.896;2023-04-25T07:57:47;7.18;;;1.95;;
56239;SDS011;42154;51.992;5.896;2023-04-25T08:00:13;7.40;;;2.40;;
56239;SDS011;42154;51.992;5.896;2023-04-25T08:02:41;8.43;;;2.30;;
56239;SDS011;42154;51.992;5.896;2023-04-25T08:05:12;6.53;;;1.70;;
56239;SDS011;42154;51.992;5.896;2023-04-25T08:07:42;8.47;;;1.73;;
56239;SDS011;42154;51.992;5.896;2023-04-25T08:10:09;8.88;;;1.92;;
56239;SDS011;42154;51.992;5.896;2023-04-25T08:12:35;11.10;;;1.77;;
56239;SDS011;42154;51.992;5.896;2023-04-25T08:15:01;5.60;;;1.65;;
56239;SDS011;42154;51.992;5.896;2023-04-25T08:17:33;6.15;;;1.40;;
56239;SDS011;42154;51.992;5.896;2023-04-25T08:19:58;10.75;;;1.40;;
56239;SDS011;42154;51.992;5.896;2023-04-25T08:22:30;4.75;;;1.10;;
56239;SDS011;42154;51.992;5.896;2023-04-25T08:25:25;6.97;;;1.40;;
56239;SDS011;42154;51.992;5.896;2023-04-25T08:27:51;7.38;;;1.80;;
56239;SDS011;42154;51.992;5.896;2023-04-25T08:30:20;10.82;;;2.30;;
56239;SDS011;42154;51.992;5.896;2023-04-25T08:32:46;11.27;;;1.42;;
56239;SDS011;42154;51.992;5.896;2023-04-25T08:35:38;4.85;;;1.50;;
56239;SDS011;42154;51.992;5.896;2023-04-25T08:38:03;8.63;;;1.60;;
56239;SDS011;42154;51.992;5.896;2023-04-25T08:40:29;6.03;;;1.58;;
56239;SDS011;42154;51.992;5.896;2023-04-25T08:43:04;7.78;;;1.88;;
56239;SDS011;42154;51.992;5.896;2023-04-25T08:45:38;7.00;;;1.40;;
56239;SDS011;42154;51.992;5.896;2023-04-25T08:48:13;5.25;;;1.00;;
56239;SDS011;42154;51.992;5.896;2023-04-25T08:51:01;6.65;;;1.52;;
56239;SDS011;42154;51.992;5.896;2023-04-25T08:53:31;4.35;;;1.25;;
56239;SDS011;42154;51.992;5.896;2023-04-25T08:56:00;9.93;;;1.70;;
56239;SDS011;42154;51.992;5.896;2023-04-25T08:58:30;4.53;;;1.25;;
56239;SDS011;42154;51.992;5.896;2023-04-25T09:00:56;7.53;;;1.30;;
56239;SDS011;42154;51.992;5.896;2023-04-25T09:03:25;6.00;;;1.50;;
56239;SDS011;42154;51.992;5.896;2023-04-25T09:05:51;5.53;;;1.00;;
56239;SDS011;42154;51.992;5.896;2023-04-25T09:08:20;3.95;;;1.00;;
56239;SDS011;42154;51.992;5.896;2023-04-25T09:10:46;8.57;;;1.67;;
56239;SDS011;42154;51.992;5.896;2023-04-25T09:13:13;8.25;;;1.25;;
56239;SDS011;42154;51.992;5.896;2023-04-25T09:16:17;3.47;;;1.13;;
56239;SDS011;42154;51.992;5.896;2023-04-25T09:19:29;5.47;;;0.90;;
56239;SDS011;42154;51.992;5.896;2023-04-25T09:21:59;6.32;;;1.27;;
56239;SDS011;42154;51.992;5.896;2023-04-25T09:24:35;4.93;;;1.33;;
56239;SDS011;42154;51.992;5.896;2023-04-25T09:27:08;7.70;;;1.20;;
56239;SDS011;42154;51.992;5.896;2023-04-25T09:29:38;5.00;;;1.25;;
56239;SDS011;42154;51.992;5.896;2023-04-25T09:32:19;5.65;;;1.00;;
56239;SDS011;42154;51.992;5.896;2023-04-25T09:40:13;4.55;;;1.10;;
56239;SDS011;42154;51.992;5.896;2023-04-25T09:42:58;6.28;;;1.17;;
56239;SDS011;42154;51.992;5.896;2023-04-25T09:45:25;4.57;;;0.90;;
56239;SDS011;42154;51.992;5.896;2023-04-25T09:47:50;6.60;;;1.55;;
56239;SDS011;42154;51.992;5.896;2023-04-25T09:50:24;6.13;;;1.35;;
56239;SDS011;42154;51.992;5.896;2023-04-25T09:53:02;4.95;;;1.05;;
56239;SDS011;42154;51.992;5.896;2023-04-25T09:55:49;3.83;;;0.82;;
56239;SDS011;42154;51.992;5.896;2023-04-25T09:58:15;3.55;;;1.48;;
56239;SDS011;42154;51.992;5.896;2023-04-25T10:00:41;4.95;;;0.90;;
56239;SDS011;42154;51.992;5.896;2023-04-25T10:03:21;6.13;;;1.20;;
56239;SDS011;42154;51.992;5.896;2023-04-25T10:06:11;4.65;;;1.30;;
56239;SDS011;42154;51.992;5.896;2023-04-25T10:08:39;3.05;;;1.00;;
56239;SDS011;42154;51.992;5.896;2023-04-25T10:11:07;5.80;;;1.30;;
56239;SDS011;42154;51.992;5.896;2023-04-25T10:13:34;4.20;;;1.02;;
56239;SDS011;42154;51.992;5.896;2023-04-25T10:16:01;4.90;;;1.00;;
56239;SDS011;42154;51.992;5.896;2023-04-25T10:18:28;6.22;;;1.42;;
56239;SDS011;42154;51.992;5.896;2023-04-25T10:20:55;3.47;;;1.23;;
56239;SDS011;42154;51.992;5.896;2023-04-25T10:23:23;5.55;;;1.00;;
56239;SDS011;42154;51.992;5.896;2023-04-25T10:25:50;2.97;;;0.85;;
56239;SDS011;42154;51.992;5.896;2023-04-25T10:28:17;4.75;;;0.85;;
56239;SDS011;42154;51.992;5.896;2023-04-25T10:31:02;5.38;;;1.00;;
56239;SDS011;42154;51.992;5.896;2023-04-25T10:33:36;4.28;;;1.13;;
56239;SDS011;42154;51.992;5.896;2023-04-25T10:36:13;3.28;;;0.73;;
56239;SDS011;42154;51.992;5.896;2023-04-25T10:38:43;4.57;;;1.00;;
56239;SDS011;42154;51.992;5.896;2023-04-25T10:41:10;6.10;;;1.92;;
56239;SDS011;42154;51.992;5.896;2023-04-25T10:43:40;7.85;;;1.10;;
56239;SDS011;42154;51.992;5.896;2023-04-25T10:46:16;4.43;;;0.98;;
56239;SDS011;42154;51.992;5.896;2023-04-25T10:48:52;6.75;;;1.42;;
56239;SDS011;42154;51.992;5.896;2023-04-25T10:51:23;4.35;;;1.02;;
56239;SDS011;42154;51.992;5.896;2023-04-25T10:54:08;6.18;;;1.08;;
56239;SDS011;42154;51.992;5.896;2023-04-25T10:56:38;4.90;;;1.13;;
56239;SDS011;42154;51.992;5.896;2023-04-25T10:59:10;5.68;;;1.20;;
56239;SDS011;42154;51.992;5.896;2023-04-25T11:01:41;6.35;;;1.67;;
56239;SDS011;42154;51.992;5.896;2023-04-25T11:04:20;3.92;;;0.85;;
56239;SDS011;42154;51.992;5.896;2023-04-25T11:09:28;5.53;;;1.30;;
56239;SDS011;42154;51.992;5.896;2023-04-25T11:11:54;3.92;;;0.85;;
56239;SDS011;42154;51.992;5.896;2023-04-25T11:14:20;6.22;;;1.05;;
56239;SDS011;42154;51.992;5.896;2023-04-25T11:16:47;3.80;;;0.77;;
56239;SDS011;42154;51.992;5.896;2023-04-25T11:19:13;2.85;;;0.90;;
56239;SDS011;42154;51.992;5.896;2023-04-25T11:21:38;5.13;;;1.00;;
56239;SDS011;42154;51.992;5.896;2023-04-25T11:24:04;3.03;;;0.98;;
56239;SDS011;42154;51.992;5.896;2023-04-25T11:26:30;1.80;;;0.57;;
56239;SDS011;42154;51.992;5.896;2023-04-25T11:28:57;2.42;;;0.88;;
56239;SDS011;42154;51.992;5.896;2023-04-25T11:31:24;3.13;;;1.10;;
56239;SDS011;42154;51.992;5.896;2023-04-25T11:33:50;4.03;;;0.70;;
56239;SDS011;42154;51.992;5.896;2023-04-25T11:36:18;2.28;;;0.50;;
56239;SDS011;42154;51.992;5.896;2023-04-25T11:38:43;1.75;;;0.88;;
56239;SDS011;42154;51.992;5.896;2023-04-25T11:41:09;3.03;;;0.70;;
56239;SDS011;42154;51.992;5.896;2023-04-25T11:43:36;2.15;;;0.68;;
56239;SDS011;42154;51.992;5.896;2023-04-25T11:46:06;3.40;;;0.77;;
56239;SDS011;42154;51.992;5.896;2023-04-25T11:48:39;5.95;;;0.85;;
56239;SDS011;42154;51.992;5.896;2023-04-25T11:51:08;5.28;;;1.10;;
56239;SDS011;42154;51.992;5.896;2023-04-25T11:53:34;3.28;;;0.80;;
56239;SDS011;42154;51.992;5.896;2023-04-25T11:56:00;3.53;;;1.00;;
56239;SDS011;42154;51.992;5.896;2023-04-25T11:58:26;4.20;;;0.70;;
56239;SDS011;42154;51.992;5.896;2023-04-25T12:00:52;4.07;;;1.02;;
56239;SDS011;42154;51.992;5.896;2023-04-25T12:03:18;2.30;;;0.77;;
56239;SDS011;42154;51.992;5.896;2023-04-25T12:05:44;4.95;;;1.00;;
56239;SDS011;42154;51.992;5.896;2023-04-25T12:08:14;2.50;;;0.52;;
56239;SDS011;42154;51.992;5.896;2023-04-25T12:10:44;3.05;;;0.88;;
56239;SDS011;42154;51.992;5.896;2023-04-25T12:13:20;2.58;;;0.95;;
56239;SDS011;42154;51.992;5.896;2023-04-25T12:15:47;4.20;;;0.95;;
56239;SDS011;42154;51.992;5.896;2023-04-25T12:18:13;4.80;;;0.80;;
56239;SDS011;42154;51.992;5.896;2023-04-25T12:20:39;5.20;;;0.80;;
56239;SDS011;42154;51.992;5.896;2023-04-25T12:23:07;4.30;;;1.20;;
56239;SDS011;42154;51.992;5.896;2023-04-25T12:25:40;2.40;;;1.02;;
56239;SDS011;42154;51.992;5.896;2023-04-25T12:28:13;3.80;;;0.68;;
56239;SDS011;42154;51.992;5.896;2023-04-25T12:33:35;2.60;;;0.80;;
56239;SDS011;42154;51.992;5.896;2023-04-25T12:36:02;4.72;;;0.82;;
56239;SDS011;42154;51.992;5.896;2023-04-25T12:38:35;3.45;;;0.82;;
56239;SDS011;42154;51.992;5.896;2023-04-25T12:41:02;4.57;;;1.20;;
56239;SDS011;42154;51.992;5.896;2023-04-25T12:43:28;6.28;;;1.33;;
56239;SDS011;42154;51.992;5.896;2023-04-25T12:45:55;4.93;;;1.20;;
56239;SDS011;42154;51.992;5.896;2023-04-25T12:48:21;4.28;;;0.90;;
56239;SDS011;42154;51.992;5.896;2023-04-25T12:50:47;5.95;;;0.90;;
56239;SDS011;42154;51.992;5.896;2023-04-25T12:53:23;5.95;;;1.30;;
56239;SDS011;42154;51.992;5.896;2023-04-25T12:55:49;4.20;;;0.85;;
56239;SDS011;42154;51.992;5.896;2023-04-25T12:58:16;2.72;;;0.95;;
56239;SDS011;42154;51.992;5.896;2023-04-25T13:00:43;2.85;;;0.90;;
56239;SDS011;42154;51.992;5.896;2023-04-25T13:03:09;3.90;;;1.10;;
56239;SDS011;42154;51.992;5.896;2023-04-25T13:05:36;5.00;;;1.00;;
56239;SDS011;42154;51.992;5.896;2023-04-25T13:08:02;5.25;;;0.88;;
56239;SDS011;42154;51.992;5.896;2023-04-25T13:10:29;5.95;;;1.30;;
56239;SDS011;42154;51.992;5.896;2023-04-25T13:12:55;4.15;;;1.00;;
56239;SDS011;42154;51.992;5.896;2023-04-25T13:15:20;4.97;;;1.23;;
56239;SDS011;42154;51.992;5.896;2023-04-25T13:17:47;4.60;;;1.15;;
56239;SDS011;42154;51.992;5.896;2023-04-25T13:20:12;4.60;;;1.00;;
56239;SDS011;42154;51.992;5.896;2023-04-25T13:22:40;5.00;;;1.10;;
56239;SDS011;42154;51.992;5.896;2023-04-25T13:25:06;1.98;;;0.68;;
56239;SDS011;42154;51.992;5.896;2023-04-25T13:27:33;4.63;;;1.20;;
56239;SDS011;42154;51.992;5.896;2023-04-25T13:30:02;2.53;;;0.73;;
56239;SDS011;42154;51.992;5.896;2023-04-25T13:35:04;4.85;;;0.80;;
56239;SDS011;42154;51.992;5.896;2023-04-25T13:37:33;2.45;;;0.70;;
56239;SDS011;42154;51.992;5.896;2023-04-25T13:40:00;4.07;;;1.05;;
56239;SDS011;42154;51.992;5.896;2023-04-25T13:42:29;4.03;;;1.13;;
56239;SDS011;42154;51.992;5.896;2023-04-25T13:44:54;2.88;;;0.80;;
56239;SDS011;42154;51.992;5.896;2023-04-25T13:47:20;3.65;;;1.10;;
56239;SDS011;42154;51.992;5.896;2023-04-25T13:49:47;4.13;;;0.80;;
56239;SDS011;42154;51.992;5.896;2023-04-25T13:52:12;2.33;;;0.60;;
56239;SDS011;42154;51.992;5.896;2023-04-25T13:54:38;1.88;;;0.85;;
56239;SDS011;42154;51.992;5.896;2023-04-25T13:57:04;2.78;;;1.00;;
56239;SDS011;42154;51.992;5.896;2023-04-25T13:59:30;3.35;;;0.80;;
56239;SDS011;42154;51.992;5.896;2023-04-25T14:01:57;2.72;;;0.70;;
56239;SDS011;42154;51.992;5.896;2023-04-25T14:04:22;1.88;;;0.50;;
56239;SDS011;42154;51.992;5.896;2023-04-25T14:06:48;1.10;;;0.50;;
56239;SDS011;42154;51.992;5.896;2023-04-25T14:09:14;3.00;;;0.50;;
56239;SDS011;42154;51.992;5.896;2023-04-25T14:11:40;3.22;;;0.65;;
56239;SDS011;42154;51.992;5.896;2023-04-25T14:14:06;5.07;;;1.10;;
56239;SDS011;42154;51.992;5.896;2023-04-25T14:16:31;4.13;;;0.70;;
56239;SDS011;42154;51.992;5.896;2023-04-25T14:18:58;3.42;;;0.90;;
56239;SDS011;42154;51.992;5.896;2023-04-25T14:21:23;3.17;;;0.93;;
56239;SDS011;42154;51.992;5.896;2023-04-25T14:23:50;5.13;;;1.00;;
56239;SDS011;42154;51.992;5.896;2023-04-25T14:26:16;3.45;;;1.20;;
56239;SDS011;42154;51.992;5.896;2023-04-25T14:28:41;2.53;;;0.75;;
56239;SDS011;42154;51.992;5.896;2023-04-25T14:31:07;1.73;;;0.57;;
56239;SDS011;42154;51.992;5.896;2023-04-25T14:33:33;2.05;;;0.80;;
56239;SDS011;42154;51.992;5.896;2023-04-25T14:35:59;5.10;;;0.88;;
56239;SDS011;42154;51.992;5.896;2023-04-25T14:38:26;2.92;;;0.85;;
56239;SDS011;42154;51.992;5.896;2023-04-25T14:40:52;4.40;;;0.95;;
56239;SDS011;42154;51.992;5.896;2023-04-25T14:43:19;5.43;;;1.25;;
56239;SDS011;42154;51.992;5.896;2023-04-25T14:45:45;2.28;;;0.73;;
56239;SDS011;42154;51.992;5.896;2023-04-25T14:48:11;6.63;;;1.10;;
56239;SDS011;42154;51.992;5.896;2023-04-25T14:50:36;4.75;;;1.02;;
56239;SDS011;42154;51.992;5.896;2023-04-25T14:53:02;4.30;;;1.05;;
56239;SDS011;42154;51.992;5.896;2023-04-25T14:55:28;4.63;;;0.90;;
56239;SDS011;42154;51.992;5.896;2023-04-25T14:57:54;5.95;;;1.23;;
56239;SDS011;42154;51.992;5.896;2023-04-25T15:00:20;6.70;;;1.00;;
56239;SDS011;42154;51.992;5.896;2023-04-25T15:02:50;4.20;;;1.08;;
56239;SDS011;42154;51.992;5.896;2023-04-25T15:05:16;6.40;;;1.13;;
56239;SDS011;42154;51.992;5.896;2023-04-25T15:07:42;2.55;;;0.90;;
56239;SDS011;42154;51.992;5.896;2023-04-25T15:10:08;2.13;;;0.90;;
56239;SDS011;42154;51.992;5.896;2023-04-25T15:12:40;2.85;;;0.93;;